createdAt,value
2018-07-28T00:01:08.002Z,100176.95
2018-07-28T00:03:34.030Z,100182.70
2018-07-28T00:06:00.009Z,100184.33
2018-07-28T00:08:26.013Z,100176.77
2018-07-28T00:10:52.004Z,100177.88
2018-07-28T00:13:17.987Z,100176.03
2018-07-28T00:15:43.967Z,100180.01
2018-07-28T00:18:09.935Z,100180.12
2018-07-28T00:20:36.007Z,100173.16
2018-07-28T00:23:01.991Z,100165.05
2018-07-28T00:25:27.973Z,100169.26
2018-07-28T00:27:53.948Z,100170.40
2018-07-28T00:30:19.924Z,100167.94
2018-07-28T00:32:45.892Z,100164.45
2018-07-28T00:35:11.871Z,100164.34
2018-07-28T00:37:37.870Z,100159.23
2018-07-28T00:40:03.840Z,100158.97
2018-07-28T00:42:29.808Z,100150.78
2018-07-28T00:44:55.777Z,100152.95
2018-07-28T00:47:21.731Z,100151.45
2018-07-28T00:49:47.712Z,100143.41
2018-07-28T00:52:13.676Z,100141.70
2018-07-28T00:54:39.715Z,100142.72
2018-07-28T00:57:05.705Z,100137.17
2018-07-28T00:59:31.667Z,100136.97
2018-07-28T01:01:57.634Z,100133.32
2018-07-28T01:04:23.600Z,100138.66
2018-07-28T01:06:49.542Z,100139.33
2018-07-28T01:09:15.518Z,100144.97
2018-07-28T01:11:41.492Z,100148.03
2018-07-28T01:14:07.480Z,100148.87
2018-07-28T01:16:33.462Z,100151.73
2018-07-28T01:18:59.441Z,100171.61
2018-07-28T01:21:25.404Z,100189.66
2018-07-28T01:23:51.380Z,100184.66
2018-07-28T01:26:17.375Z,100184.05
2018-07-28T01:28:43.409Z,100169.11
2018-07-28T01:31:09.392Z,100174.16
2018-07-28T01:33:35.352Z,100194.39
2018-07-28T01:36:01.380Z,100181.08
2018-07-28T01:38:27.351Z,100175.55
2018-07-28T01:40:53.340Z,100154.20
2018-07-28T01:43:19.327Z,100178.38
2018-07-28T01:45:45.367Z,100182.44
2018-07-28T01:48:11.332Z,100177.48
2018-07-28T01:50:37.324Z,100171.61
2018-07-28T01:53:03.441Z,100164.12
2018-07-28T01:55:29.406Z,100156.66
2018-07-28T01:57:55.365Z,100144.36
2018-07-28T02:00:21.380Z,100134.47
2018-07-28T02:02:47.341Z,100123.70
2018-07-28T02:05:13.307Z,100115.95
2018-07-28T02:07:39.269Z,100106.21
2018-07-28T02:10:05.261Z,100110.27
2018-07-28T02:12:31.308Z,100106.26
2018-07-28T02:14:57.273Z,100106.88
2018-07-28T02:17:23.248Z,100106.90
2018-07-28T02:19:49.202Z,100108.75
2018-07-28T02:22:15.163Z,100096.33
2018-07-28T02:24:41.124Z,100090.34
2018-07-28T02:27:07.089Z,100083.73
2018-07-28T02:29:33.071Z,100085.77
2018-07-28T02:31:59.052Z,100093.00
2018-07-28T02:34:25.032Z,100095.02
2018-07-28T02:36:51.105Z,100093.06
2018-07-28T02:39:17.054Z,100097.25
2018-07-28T02:41:43.032Z,100091.67
2018-07-28T02:44:09.009Z,100089.20
2018-07-28T02:46:35.096Z,100097.87
2018-07-28T02:49:01.055Z,100103.42
2018-07-28T02:51:27.040Z,100099.72
2018-07-28T02:53:53.000Z,100118.08
2018-07-28T02:56:18.973Z,100180.47
2018-07-28T02:58:44.940Z,100195.86
2018-07-28T03:01:10.933Z,100159.45
2018-07-28T03:03:36.917Z,100190.41
2018-07-28T03:06:02.912Z,100174.22
2018-07-28T03:08:28.855Z,100180.06
2018-07-28T03:10:54.815Z,100189.08
2018-07-28T03:13:20.791Z,100165.98
2018-07-28T03:15:46.772Z,100184.45
2018-07-28T03:18:12.758Z,100171.64
2018-07-28T03:20:38.731Z,100174.08
2018-07-28T03:23:04.715Z,100184.34
2018-07-28T03:25:30.682Z,100193.33
2018-07-28T03:27:56.679Z,100162.61
2018-07-28T03:30:22.660Z,100164.77
2018-07-28T03:32:48.623Z,100179.70
2018-07-28T03:35:14.581Z,100140.12
2018-07-28T03:37:40.553Z,100142.16
2018-07-28T03:40:06.506Z,100166.85
2018-07-28T03:42:32.461Z,100160.22
2018-07-28T03:44:58.417Z,100157.44
2018-07-28T03:47:24.384Z,100168.56
2018-07-28T03:49:50.351Z,100151.05
2018-07-28T03:52:16.372Z,100163.83
2018-07-28T03:54:42.341Z,100155.30
2018-07-28T03:57:08.322Z,100128.84
2018-07-28T03:59:34.294Z,100134.88
2018-07-28T04:02:00.265Z,100144.09
2018-07-28T04:04:26.239Z,100142.66
2018-07-28T04:06:52.213Z,100123.48
2018-07-28T04:09:18.176Z,100123.89
2018-07-28T04:11:44.145Z,100119.41
2018-07-28T04:14:10.108Z,100124.49
2018-07-28T04:16:36.132Z,100126.23
2018-07-28T04:19:02.075Z,100122.76
2018-07-28T04:21:28.172Z,100116.77
2018-07-28T04:23:54.142Z,100113.25
2018-07-28T04:26:20.140Z,100121.32
2018-07-28T04:28:46.118Z,100118.95
2018-07-28T04:31:12.119Z,100110.88
2018-07-28T04:33:38.090Z,100112.30
2018-07-28T04:36:04.077Z,100106.05
2018-07-28T04:38:30.050Z,100100.53
2018-07-28T04:40:56.030Z,100093.64
2018-07-28T04:43:22.026Z,100082.61
2018-07-28T04:45:48.098Z,100069.39
2018-07-28T04:48:14.092Z,100068.55
2018-07-28T04:50:40.065Z,100077.58
2018-07-28T04:53:06.052Z,100082.50
2018-07-28T04:55:32.001Z,100084.23
2018-07-28T04:57:57.978Z,100077.36
2018-07-28T05:00:23.958Z,100074.29
2018-07-28T05:02:49.947Z,100064.97
2018-07-28T05:05:15.912Z,100065.07
2018-07-28T05:07:42.064Z,100068.55
2018-07-28T05:10:07.860Z,100064.15
2018-07-28T05:12:34.761Z,100066.63
2018-07-28T05:15:00.731Z,100066.63
2018-07-28T05:17:26.712Z,100065.39
2018-07-28T05:19:52.667Z,100062.21
2018-07-28T05:22:18.710Z,100072.77
2018-07-28T05:24:44.696Z,100077.48
2018-07-28T05:27:10.661Z,100095.30
2018-07-28T05:29:36.668Z,100098.28
2018-07-28T05:32:02.675Z,100101.66
2018-07-28T05:34:28.636Z,100110.27
2018-07-28T05:36:54.585Z,100106.73
2018-07-28T05:39:20.570Z,100094.94
2018-07-28T05:41:46.528Z,100089.97
2018-07-28T05:44:12.524Z,100114.25
2018-07-28T05:46:38.487Z,100143.47
2018-07-28T05:49:04.463Z,100150.32
2018-07-28T05:51:30.432Z,100138.23
2018-07-28T05:53:56.412Z,100154.42
2018-07-28T05:56:22.374Z,100156.69
2018-07-28T05:58:48.355Z,100168.27
2018-07-28T06:01:14.378Z,100165.30
2018-07-28T06:03:40.348Z,100182.30
2018-07-28T06:06:06.333Z,100175.34
2018-07-28T06:08:32.394Z,100146.63
2018-07-28T06:10:58.486Z,100165.27
2018-07-28T06:13:24.541Z,100194.06
2018-07-28T06:15:50.545Z,100197.17
2018-07-28T06:18:16.582Z,100179.11
2018-07-28T06:20:42.605Z,100177.34
2018-07-28T06:23:08.638Z,100172.53
2018-07-28T06:25:34.605Z,100175.94
2018-07-28T06:28:00.583Z,100175.94
2018-07-28T06:30:26.571Z,100174.70
2018-07-28T06:32:52.535Z,100185.28
2018-07-28T06:35:18.499Z,100192.79
2018-07-28T06:37:44.471Z,100203.61
2018-07-28T06:40:10.439Z,100210.30
2018-07-28T06:42:36.405Z,100211.91
2018-07-28T06:45:02.394Z,100216.73
2018-07-28T06:47:28.446Z,100228.14
2018-07-28T06:49:54.430Z,100227.37
2018-07-28T06:52:20.436Z,100231.89
2018-07-28T06:54:46.409Z,100226.53
2018-07-28T06:57:12.456Z,100231.16
2018-07-28T06:59:38.444Z,100233.91
2018-07-28T07:02:04.413Z,100240.05
2018-07-28T07:04:30.381Z,100241.19
2018-07-28T07:06:56.353Z,100233.91
2018-07-28T07:09:22.322Z,100236.42
2018-07-28T07:11:48.388Z,100229.58
2018-07-28T07:14:14.416Z,100227.73
2018-07-28T07:16:43.962Z,100239.56
2018-07-28T07:19:09.982Z,100236.23
2018-07-28T07:21:35.996Z,100244.56
2018-07-28T07:24:01.999Z,100234.98
2018-07-28T07:26:28.036Z,100238.28
2018-07-28T07:28:54.028Z,100249.12
2018-07-28T07:31:20.033Z,100253.23
2018-07-28T07:33:46.086Z,100248.64
2018-07-28T07:36:12.078Z,100247.30
2018-07-28T07:38:38.081Z,100244.56
2018-07-28T07:41:04.207Z,100243.05
2018-07-28T07:43:30.221Z,100232.13
2018-07-28T07:45:56.233Z,100214.11
2018-07-28T07:48:22.255Z,100205.59
2018-07-28T07:50:48.297Z,100200.27
2018-07-28T07:53:14.405Z,100190.75
2018-07-28T07:55:40.383Z,100177.80
2018-07-28T07:58:06.358Z,100179.95
2018-07-28T08:00:32.413Z,100191.08
2018-07-28T08:02:58.392Z,100197.60
2018-07-28T08:05:24.343Z,100210.48
2018-07-28T08:07:50.345Z,100225.20
2018-07-28T08:10:16.376Z,100238.80
2018-07-28T08:12:42.372Z,100244.94
2018-07-28T08:15:08.327Z,100253.64
2018-07-28T08:17:34.346Z,100254.97
2018-07-28T08:20:00.323Z,100269.22
2018-07-28T08:22:26.294Z,100281.69
2018-07-28T08:24:52.320Z,100278.55
2018-07-28T08:27:18.309Z,100274.55
2018-07-28T08:29:44.285Z,100281.21
2018-07-28T08:32:10.293Z,100281.73
2018-07-28T08:34:36.272Z,100279.88
2018-07-28T08:37:02.272Z,100274.06
2018-07-28T08:39:28.279Z,100284.34
2018-07-28T08:41:54.273Z,100286.05
2018-07-28T08:44:20.269Z,100283.31
2018-07-28T08:46:46.261Z,100297.45
2018-07-28T08:49:12.502Z,100298.86
2018-07-28T08:51:38.407Z,100300.00
2018-07-28T08:54:04.453Z,100293.20
2018-07-28T08:56:30.458Z,100299.52
2018-07-28T08:58:56.420Z,100300.12
2018-07-28T09:01:22.442Z,100300.12
2018-07-28T09:03:48.435Z,100297.27
2018-07-28T09:06:14.434Z,100299.63
2018-07-28T09:08:40.384Z,100303.41
2018-07-28T09:11:06.388Z,100298.52
2018-07-28T09:13:32.421Z,100307.75
2018-07-28T09:15:58.407Z,100297.77
2018-07-28T09:18:24.382Z,100297.67
2018-07-28T09:20:50.383Z,100295.11
2018-07-28T09:23:16.381Z,100303.11
2018-07-28T09:25:42.335Z,100296.63
2018-07-28T09:28:08.317Z,100298.34
2018-07-28T09:30:34.346Z,100298.97
2018-07-28T09:33:00.305Z,100293.45
2018-07-28T09:35:26.264Z,100305.52
2018-07-28T09:37:52.270Z,100299.92
2018-07-28T09:40:18.238Z,100290.56
2018-07-28T09:42:44.279Z,100281.59
2018-07-28T09:45:10.407Z,100276.23
2018-07-28T09:47:36.365Z,100283.76
2018-07-28T09:50:02.335Z,100282.09
2018-07-28T09:52:28.308Z,100283.69
2018-07-28T09:54:54.297Z,100289.38
2018-07-28T09:57:20.293Z,100286.50
2018-07-28T09:59:46.268Z,100285.09
2018-07-28T10:02:12.235Z,100281.09
2018-07-28T10:04:38.213Z,100283.53
2018-07-28T10:07:04.197Z,100286.45
2018-07-28T10:09:30.222Z,100284.27
2018-07-28T10:11:56.261Z,100285.05
2018-07-28T10:14:22.228Z,100282.78
2018-07-28T10:16:48.200Z,100285.75
2018-07-28T10:19:14.261Z,100289.94
2018-07-28T10:21:40.275Z,100291.16
2018-07-28T10:24:06.272Z,100287.75
2018-07-28T10:26:32.281Z,100284.77
2018-07-28T10:28:58.250Z,100283.38
2018-07-28T10:31:24.236Z,100283.68
2018-07-28T10:33:50.219Z,100282.97
2018-07-28T10:36:16.270Z,100285.02
2018-07-28T10:38:42.163Z,100284.49
2018-07-28T10:41:08.161Z,100283.49
2018-07-28T10:43:34.136Z,100280.63
2018-07-28T10:46:00.108Z,100281.75
2018-07-28T10:48:26.087Z,100280.61
2018-07-28T10:50:52.056Z,100280.50
2018-07-28T10:53:18.279Z,100281.13
2018-07-28T10:55:44.252Z,100279.68
2018-07-28T10:58:10.221Z,100282.16
2018-07-28T11:00:36.188Z,100278.68
2018-07-28T11:03:02.209Z,100283.64
2018-07-28T11:05:28.164Z,100276.74
2018-07-28T11:07:54.132Z,100270.77
2018-07-28T11:10:20.119Z,100271.77
2018-07-28T11:12:46.088Z,100266.36
2018-07-28T11:15:12.052Z,100266.33
2018-07-28T11:17:38.016Z,100265.95
2018-07-28T11:20:04.009Z,100267.61
2018-07-28T11:22:30.008Z,100263.31
2018-07-28T11:24:55.959Z,100264.23
2018-07-28T11:27:21.938Z,100270.49
2018-07-28T11:29:47.932Z,100271.41
2018-07-28T11:32:13.903Z,100275.12
2018-07-28T11:34:39.954Z,100267.61
2018-07-28T11:37:05.971Z,100264.23
2018-07-28T11:39:31.942Z,100255.80
2018-07-28T11:41:57.928Z,100244.33
2018-07-28T11:44:23.920Z,100245.73
2018-07-28T11:46:49.887Z,100247.17
2018-07-28T11:49:15.891Z,100256.56
2018-07-28T11:51:41.872Z,100250.17
2018-07-28T11:54:07.875Z,100249.22
2018-07-28T11:56:33.848Z,100253.35
2018-07-28T11:58:59.836Z,100257.13
2018-07-28T12:01:25.812Z,100265.21
2018-07-28T12:03:51.796Z,100267.69
2018-07-28T12:06:17.774Z,100265.95
2018-07-28T12:08:43.892Z,100262.90
2018-07-28T12:11:09.865Z,100261.87
2018-07-28T12:13:36.407Z,100264.72
2018-07-28T12:16:02.368Z,100269.27
2018-07-28T12:18:28.339Z,100274.00
2018-07-28T12:20:54.328Z,100269.29
2018-07-28T12:23:20.300Z,100263.23
2018-07-28T12:25:46.453Z,100262.52
2018-07-28T12:28:12.434Z,100278.00
2018-07-28T12:30:38.411Z,100280.69
2018-07-28T12:33:04.395Z,100288.77
2018-07-28T12:35:30.371Z,100280.85
2018-07-28T12:37:56.363Z,100284.12
2018-07-28T12:40:22.336Z,100284.03
2018-07-28T12:42:48.298Z,100283.66
2018-07-28T12:45:14.304Z,100285.70
2018-07-28T12:47:40.282Z,100279.18
2018-07-28T12:50:06.264Z,100289.83
2018-07-28T12:52:32.245Z,100282.43
2018-07-28T12:54:58.215Z,100282.85
2018-07-28T12:57:24.202Z,100285.11
2018-07-28T12:59:50.234Z,100284.08
2018-07-28T13:02:16.214Z,100283.27
2018-07-28T13:04:42.228Z,100294.75
2018-07-28T13:07:08.194Z,100297.69
2018-07-28T13:09:34.166Z,100293.80
2018-07-28T13:12:00.151Z,100291.95
2018-07-28T13:14:26.130Z,100291.33
2018-07-28T13:16:52.133Z,100293.18
2018-07-28T13:19:18.135Z,100283.30
2018-07-28T13:21:44.126Z,100284.03
2018-07-28T13:24:10.106Z,100286.41
2018-07-28T13:26:36.093Z,100290.52
2018-07-28T13:29:02.058Z,100281.28
2018-07-28T13:31:28.082Z,100290.00
2018-07-28T13:33:54.090Z,100289.29
2018-07-28T13:36:20.082Z,100286.95
2018-07-28T13:38:46.187Z,100298.41
2018-07-28T13:41:12.177Z,100304.00
2018-07-28T13:43:38.180Z,100303.89
2018-07-28T13:46:04.174Z,100289.61
2018-07-28T13:48:30.188Z,100288.52
2018-07-28T13:50:56.179Z,100278.42
2018-07-28T13:53:22.192Z,100280.77
2018-07-28T13:55:48.131Z,100279.89
2018-07-28T13:58:14.103Z,100276.55
2018-07-28T14:00:40.067Z,100264.65
2018-07-28T14:03:06.955Z,100270.73
2018-07-28T14:05:32.938Z,100271.94
2018-07-28T14:07:58.930Z,100271.44
2018-07-28T14:10:24.922Z,100278.92
2018-07-28T14:12:50.885Z,100275.94
2018-07-28T14:15:16.949Z,100270.63
2018-07-28T14:17:42.912Z,100266.92
2018-07-28T14:20:08.891Z,100266.80
2018-07-28T14:22:34.870Z,100271.63
2018-07-28T14:25:00.889Z,100275.33
2018-07-28T14:27:26.843Z,100270.93
2018-07-28T14:29:52.776Z,100276.45
2018-07-28T14:32:18.919Z,100285.69
2018-07-28T14:34:44.955Z,100286.08
2018-07-28T14:37:10.974Z,100283.95
2018-07-28T14:39:36.962Z,100275.64
2018-07-28T14:42:02.958Z,100269.27
2018-07-28T14:44:28.964Z,100273.29
2018-07-28T14:46:55.005Z,100274.12
2018-07-28T14:49:20.992Z,100289.30
2018-07-28T14:51:46.967Z,100300.06
2018-07-28T14:54:12.959Z,100305.52
2018-07-28T14:56:38.961Z,100320.09
2018-07-28T14:59:04.939Z,100318.35
2018-07-28T15:01:30.909Z,100326.47
2018-07-28T15:03:56.900Z,100315.89
2018-07-28T15:06:22.874Z,100325.52
2018-07-28T15:08:48.836Z,100323.59
2018-07-28T15:11:15.120Z,100337.12
2018-07-28T15:13:41.159Z,100337.43
2018-07-28T15:16:07.181Z,100338.77
2018-07-28T15:18:33.128Z,100340.58
2018-07-28T15:20:59.152Z,100347.78
2018-07-28T15:23:25.120Z,100339.69
2018-07-28T15:25:51.181Z,100353.95
2018-07-28T15:28:17.137Z,100352.59
2018-07-28T15:30:43.112Z,100355.61
2018-07-28T15:33:09.093Z,100357.23
2018-07-28T15:35:35.090Z,100356.22
2018-07-28T15:38:01.145Z,100354.16
2018-07-28T15:40:27.128Z,100348.40
2018-07-28T15:42:53.085Z,100355.70
2018-07-28T15:45:19.044Z,100350.88
2018-07-28T15:47:45.008Z,100361.74
2018-07-28T15:50:11.047Z,100354.55
2018-07-28T15:52:37.018Z,100348.20
2018-07-28T15:55:02.980Z,100360.84
2018-07-28T15:57:28.930Z,100361.74
2018-07-28T15:59:54.887Z,100361.23
2018-07-28T16:02:20.846Z,100358.95
2018-07-28T16:04:46.818Z,100354.02
2018-07-28T16:07:12.801Z,100354.00
2018-07-28T16:09:38.771Z,100353.62
2018-07-28T16:12:04.736Z,100355.00
2018-07-28T16:14:30.699Z,100357.62
2018-07-28T16:16:56.669Z,100358.16
2018-07-28T16:19:22.738Z,100356.91
2018-07-28T16:21:48.765Z,100357.93
2018-07-28T16:24:14.751Z,100375.63
2018-07-28T16:26:40.713Z,100365.94
2018-07-28T16:29:06.668Z,100362.45
2018-07-28T16:31:32.638Z,100361.28
2018-07-28T16:33:58.576Z,100366.34
2018-07-28T16:36:24.528Z,100376.28
2018-07-28T16:38:50.564Z,100379.87
2018-07-28T16:41:16.560Z,100380.75
2018-07-28T16:43:42.568Z,100385.31
2018-07-28T16:46:08.608Z,100382.39
2018-07-28T16:48:34.589Z,100389.50
2018-07-28T16:51:00.565Z,100392.58
2018-07-28T16:53:26.524Z,100395.42
2018-07-28T16:55:52.483Z,100398.20
2018-07-28T16:58:18.511Z,100392.98
2018-07-28T17:00:44.467Z,100397.83
2018-07-28T17:03:10.446Z,100412.50
2018-07-28T17:05:36.436Z,100422.83
2018-07-28T17:08:02.420Z,100415.13
2018-07-28T17:10:28.392Z,100424.16
2018-07-28T17:12:54.368Z,100431.13
2018-07-28T17:15:20.446Z,100431.88
2018-07-28T17:17:46.419Z,100440.58
2018-07-28T17:20:12.378Z,100449.39
2018-07-28T17:22:38.416Z,100450.84
2018-07-28T17:25:04.332Z,100468.34
2018-07-28T17:27:30.285Z,100469.73
2018-07-28T17:29:56.254Z,100468.63
2018-07-28T17:32:22.286Z,100476.68
2018-07-28T17:34:48.215Z,100485.75
2018-07-28T17:37:14.195Z,100481.73
2018-07-28T17:39:40.172Z,100489.84
2018-07-28T17:42:06.142Z,100493.86
2018-07-28T17:44:32.132Z,100500.41
2018-07-28T17:46:58.092Z,100502.08
2018-07-28T17:49:24.081Z,100504.11
2018-07-28T17:51:50.045Z,100506.55
2018-07-28T17:54:16.059Z,100510.59
2018-07-28T17:56:42.033Z,100505.09
2018-07-28T17:59:07.996Z,100519.06
2018-07-28T18:01:33.975Z,100516.34
2018-07-28T18:03:59.911Z,100519.59
2018-07-28T18:06:25.887Z,100536.63
2018-07-28T18:08:51.863Z,100530.59
2018-07-28T18:11:17.834Z,100537.50
2018-07-28T18:13:44.116Z,100547.93
2018-07-28T18:16:10.086Z,100548.84
2018-07-28T18:18:36.057Z,100552.14
2018-07-28T18:21:02.031Z,100559.69
2018-07-28T18:23:28.017Z,100552.91
2018-07-28T18:25:54.043Z,100552.39
2018-07-28T18:28:20.007Z,100557.96
2018-07-28T18:30:46.032Z,100570.34
2018-07-28T18:33:12.005Z,100573.53
2018-07-28T18:35:37.995Z,100566.56
2018-07-28T18:38:03.952Z,100577.83
2018-07-28T18:40:29.912Z,100577.59
2018-07-28T18:42:55.885Z,100580.38
2018-07-28T18:45:21.861Z,100582.47
2018-07-28T18:47:47.880Z,100589.53
2018-07-28T18:50:13.836Z,100595.12
2018-07-28T18:52:39.809Z,100590.41
2018-07-28T18:55:05.914Z,100585.92
2018-07-28T18:57:31.908Z,100590.80
2018-07-28T18:59:57.879Z,100590.62
2018-07-28T19:02:23.888Z,100592.73
2018-07-28T19:04:49.923Z,100593.28
2018-07-28T19:07:15.821Z,100603.34
2018-07-28T19:09:41.783Z,100604.59
2018-07-28T19:12:07.776Z,100607.67
2018-07-28T19:14:33.734Z,100604.04
2018-07-28T19:16:59.706Z,100607.86
2018-07-28T19:19:25.666Z,100612.61
2018-07-28T19:21:51.655Z,100617.83
2018-07-28T19:24:17.626Z,100627.03
2018-07-28T19:26:43.604Z,100631.16
2018-07-28T19:29:09.578Z,100636.36
2018-07-28T19:31:35.558Z,100644.75
2018-07-28T19:34:01.529Z,100657.37
2018-07-28T19:36:27.521Z,100667.87
2018-07-28T19:38:53.511Z,100664.91
2018-07-28T19:41:19.495Z,100670.38
2018-07-28T19:43:45.452Z,100674.37
2018-07-28T19:46:11.460Z,100671.53
2018-07-28T19:48:37.470Z,100671.70
2018-07-28T19:51:03.459Z,100679.52
2018-07-28T19:53:29.450Z,100680.91
2018-07-28T19:55:55.419Z,100685.50
2018-07-28T19:58:21.393Z,100684.09
2018-07-28T20:00:47.347Z,100681.42
2018-07-28T20:03:13.323Z,100696.77
2018-07-28T20:05:39.289Z,100695.14
2018-07-28T20:10:46.914Z,100693.98
2018-07-28T20:13:12.884Z,100704.47
2018-07-28T20:15:38.857Z,100704.86
2018-07-28T20:18:04.876Z,100711.18
2018-07-28T20:20:30.866Z,100712.84
2018-07-28T20:22:56.864Z,100714.19
2018-07-28T20:25:22.848Z,100718.36
2018-07-28T20:27:48.820Z,100723.86
2018-07-28T20:30:14.812Z,100730.73
2018-07-28T20:32:40.816Z,100727.25
2018-07-28T20:35:06.807Z,100729.53
2018-07-28T20:37:32.828Z,100726.40
2018-07-28T20:39:58.814Z,100740.37
2018-07-28T20:42:24.867Z,100743.25
2018-07-28T20:44:50.874Z,100743.08
2018-07-28T20:47:16.840Z,100745.75
2018-07-28T20:49:42.828Z,100748.89
2018-07-28T20:52:08.825Z,100755.98
2018-07-28T20:54:34.777Z,100756.88
2018-07-28T20:57:00.762Z,100755.30
2018-07-28T20:59:26.783Z,100761.00
2018-07-28T21:01:52.718Z,100771.92
2018-07-28T21:04:18.691Z,100761.13
2018-07-28T21:06:44.642Z,100767.02
2018-07-28T21:09:10.630Z,100771.53
2018-07-28T21:11:36.603Z,100773.38
2018-07-28T21:14:02.580Z,100773.95
2018-07-28T21:16:28.647Z,100782.59
2018-07-28T21:18:54.569Z,100787.36
2018-07-28T21:21:20.721Z,100791.22
2018-07-28T21:23:46.688Z,100790.92
2018-07-28T21:26:12.652Z,100787.95
2018-07-28T21:28:38.652Z,100792.67
2018-07-28T21:31:04.630Z,100792.59
2018-07-28T21:33:30.678Z,100798.30
2018-07-28T21:35:56.656Z,100804.98
2018-07-28T21:38:22.605Z,100800.69
2018-07-28T21:40:48.567Z,100804.32
2018-07-28T21:43:14.565Z,100807.94
2018-07-28T21:45:40.524Z,100811.08
2018-07-28T21:48:06.522Z,100811.78
2018-07-28T21:50:32.492Z,100816.33
2018-07-28T21:52:58.461Z,100816.80
2018-07-28T21:55:24.438Z,100813.23
2018-07-28T21:57:50.464Z,100818.19
2018-07-28T22:00:16.424Z,100817.74
2018-07-28T22:02:42.390Z,100820.16
2018-07-28T22:05:08.441Z,100826.81
2018-07-28T22:07:34.489Z,100834.30
2018-07-28T22:10:00.495Z,100838.38
2018-07-28T22:12:26.476Z,100838.84
2018-07-28T22:14:52.463Z,100838.92
2018-07-28T22:17:18.444Z,100845.05
2018-07-28T22:19:44.430Z,100847.64
2018-07-28T22:22:10.391Z,100852.38
2018-07-28T22:24:36.343Z,100854.24
2018-07-28T22:27:02.401Z,100861.84
2018-07-28T22:29:28.389Z,100854.91
2018-07-28T22:31:54.361Z,100860.27
2018-07-28T22:34:20.356Z,100863.11
2018-07-28T22:36:46.467Z,100864.07
2018-07-28T22:39:12.509Z,100869.73
2018-07-28T22:41:38.498Z,100866.63
2018-07-28T22:44:04.519Z,100863.14
2018-07-28T22:46:30.493Z,100858.30
2018-07-28T22:48:56.461Z,100858.23
2018-07-28T22:51:22.416Z,100856.19
2018-07-28T22:53:48.404Z,100852.70
2018-07-28T22:56:14.666Z,100851.06
2018-07-28T22:58:40.647Z,100846.55
2018-07-28T23:01:06.629Z,100843.10
2018-07-28T23:03:32.599Z,100847.33
2018-07-28T23:05:58.584Z,100843.16
2018-07-28T23:08:24.571Z,100842.95
2018-07-28T23:10:50.559Z,100842.00
2018-07-28T23:13:16.542Z,100851.84
2018-07-28T23:15:42.511Z,100847.20
2018-07-28T23:18:08.478Z,100851.50
2018-07-28T23:20:34.432Z,100853.52
2018-07-28T23:23:00.411Z,100854.37
2018-07-28T23:25:26.383Z,100852.56
2018-07-28T23:27:52.406Z,100855.50
2018-07-28T23:30:18.323Z,100862.84
2018-07-28T23:32:44.316Z,100852.77
2018-07-28T23:35:10.265Z,100857.37
2018-07-28T23:37:36.247Z,100865.23
2018-07-28T23:40:02.243Z,100869.23
2018-07-28T23:42:28.213Z,100875.55
2018-07-28T23:44:54.200Z,100878.21
2018-07-28T23:47:20.177Z,100880.23
2018-07-28T23:49:46.240Z,100883.41
2018-07-28T23:52:12.226Z,100880.09
2018-07-28T23:54:38.260Z,100884.73
2018-07-28T23:57:05.266Z,100885.69
2018-07-28T23:59:31.267Z,100888.59
